createdAt,value
2022-11-07T00:01:12.008Z,19.51
2022-11-07T00:03:39.628Z,19.52
2022-11-07T00:06:07.566Z,19.51
2022-11-07T00:08:35.131Z,19.51
2022-11-07T00:11:02.833Z,19.50
2022-11-07T00:13:30.391Z,19.50
2022-11-07T00:15:59.500Z,19.49
2022-11-07T00:18:28.399Z,19.49
2022-11-07T00:20:55.999Z,19.47
2022-11-07T00:23:23.583Z,19.48
2022-11-07T00:25:51.159Z,19.46
2022-11-07T00:28:18.730Z,19.46
2022-11-07T00:30:46.295Z,19.46
2022-11-07T00:33:14.260Z,19.46
2022-11-07T00:35:43.587Z,19.44
2022-11-07T00:38:11.279Z,19.45
2022-11-07T00:40:38.803Z,19.45
2022-11-07T00:43:06.362Z,19.44
2022-11-07T00:45:33.953Z,19.42
2022-11-07T00:48:01.529Z,19.42
2022-11-07T00:50:29.191Z,19.42
2022-11-07T00:52:59.397Z,19.41
2022-11-07T00:55:26.972Z,19.41
2022-11-07T00:57:54.529Z,19.41
2022-11-07T01:00:22.339Z,19.41
2022-11-07T01:03:10.120Z,19.40
2022-11-07T01:05:36.864Z,19.40
2022-11-07T01:08:06.300Z,19.39
2022-11-07T01:10:33.883Z,19.39
2022-11-07T01:13:01.591Z,19.38
2022-11-07T01:15:29.159Z,19.37
2022-11-07T01:17:56.775Z,19.37
2022-11-07T01:20:24.368Z,19.36
2022-11-07T01:22:51.928Z,19.36
2022-11-07T01:25:20.932Z,19.35
2022-11-07T01:27:48.681Z,19.35
2022-11-07T01:30:16.350Z,19.33
2022-11-07T01:32:43.952Z,19.34
2022-11-07T01:35:11.479Z,19.34
2022-11-07T01:37:39.044Z,19.34
2022-11-07T01:40:07.498Z,19.32
2022-11-07T01:42:36.480Z,19.32
2022-11-07T01:45:04.286Z,19.32
2022-11-07T01:47:32.708Z,19.32
2022-11-07T01:50:00.365Z,19.31
2022-11-07T01:52:29.184Z,19.32
2022-11-07T01:54:59.009Z,19.31
2022-11-07T01:57:28.495Z,19.31
2022-11-07T01:59:57.834Z,19.29
2022-11-07T02:02:25.457Z,19.29
2022-11-07T02:04:53.276Z,19.28
2022-11-07T02:07:21.677Z,19.30
2022-11-07T02:09:49.262Z,19.28
2022-11-07T02:12:16.879Z,19.28
2022-11-07T02:14:44.494Z,19.27
2022-11-07T02:17:13.725Z,19.27
2022-11-07T02:19:42.098Z,19.27
2022-11-07T02:22:14.604Z,19.26
2022-11-07T02:24:43.491Z,19.26
2022-11-07T02:27:12.800Z,19.25
2022-11-07T02:29:40.690Z,19.25
2022-11-07T02:32:10.123Z,19.25
2022-11-07T02:34:37.701Z,19.24
2022-11-07T02:37:07.035Z,19.24
2022-11-07T02:39:34.631Z,19.22
2022-11-07T02:42:03.612Z,19.24
2022-11-07T02:44:31.341Z,19.23
2022-11-07T02:46:58.943Z,19.22
2022-11-07T02:49:26.632Z,19.23
2022-11-07T02:51:54.277Z,19.22
2022-11-07T02:54:21.872Z,19.20
2022-11-07T02:56:49.424Z,19.23
2022-11-07T02:59:21.771Z,19.21
2022-11-07T03:01:52.112Z,19.20
2022-11-07T03:04:19.767Z,19.20
2022-11-07T03:06:47.404Z,19.19
2022-11-07T03:09:15.151Z,19.20
2022-11-07T03:11:42.723Z,19.19
2022-11-07T03:14:10.307Z,19.18
2022-11-07T03:16:39.313Z,19.18
2022-11-07T03:19:06.892Z,19.19
2022-11-07T03:21:34.448Z,19.18
2022-11-07T03:24:02.022Z,19.17
2022-11-07T03:26:29.741Z,19.17
2022-11-07T03:28:59.229Z,19.17
2022-11-07T03:31:26.944Z,19.16
2022-11-07T03:33:55.881Z,19.17
2022-11-07T03:36:23.453Z,19.16
2022-11-07T03:38:51.035Z,19.16
2022-11-07T03:41:18.666Z,19.15
2022-11-07T03:43:46.316Z,19.16
2022-11-07T03:46:14.071Z,19.15
2022-11-07T03:48:41.668Z,19.14
2022-11-07T03:51:10.797Z,19.13
2022-11-07T03:53:38.339Z,19.14
2022-11-07T03:56:07.175Z,19.13
2022-11-07T03:58:34.742Z,19.13
2022-11-07T04:01:02.399Z,19.13
2022-11-07T04:03:30.006Z,19.12
2022-11-07T04:05:57.600Z,19.12
2022-11-07T04:08:26.504Z,19.12
2022-11-07T04:10:54.130Z,19.11
2022-11-07T04:13:39.172Z,19.10
2022-11-07T04:16:23.472Z,19.10
2022-11-07T04:18:51.083Z,19.10
2022-11-07T04:21:18.646Z,19.10
2022-11-07T04:23:47.547Z,19.09
2022-11-07T04:26:32.594Z,19.10
2022-11-07T04:29:00.175Z,19.09
2022-11-07T04:31:27.837Z,19.09
2022-11-07T04:33:55.449Z,19.09
2022-11-07T04:36:23.035Z,19.08
2022-11-07T04:38:51.985Z,19.08
2022-11-07T04:41:20.239Z,19.08
2022-11-07T04:43:47.796Z,19.07
2022-11-07T04:46:16.155Z,19.07
2022-11-07T04:48:43.789Z,19.07
2022-11-07T04:51:14.781Z,19.06
2022-11-07T04:53:42.355Z,19.07
2022-11-07T04:56:11.305Z,19.06
2022-11-07T04:58:38.874Z,19.06
2022-11-07T05:01:06.455Z,19.06
2022-11-07T05:03:38.881Z,19.04
2022-11-07T05:06:11.028Z,19.04
2022-11-07T05:08:38.612Z,19.05
2022-11-07T05:11:06.431Z,19.03
2022-11-07T05:13:35.399Z,19.04
2022-11-07T05:16:03.030Z,19.03
2022-11-07T05:18:30.644Z,19.03
2022-11-07T05:20:58.263Z,19.02
2022-11-07T05:23:27.788Z,19.03
2022-11-07T05:25:55.448Z,19.01
2022-11-07T05:28:31.171Z,19.02
2022-11-07T05:31:04.995Z,19.01
2022-11-07T05:33:32.699Z,19.01
2022-11-07T05:36:09.687Z,19.01
2022-11-07T05:38:37.475Z,19.01
2022-11-07T05:41:05.251Z,19.00
2022-11-07T05:43:32.821Z,18.99
2022-11-07T05:46:00.646Z,19.00
2022-11-07T05:48:30.458Z,18.99
2022-11-07T05:50:58.154Z,18.99
2022-11-07T05:53:25.756Z,18.99
2022-11-07T05:55:53.580Z,18.99
2022-11-07T05:58:21.695Z,18.98
2022-11-07T06:00:49.331Z,18.99
2022-11-07T06:03:18.463Z,18.99
2022-11-07T06:05:47.804Z,18.98
2022-11-07T06:08:15.483Z,18.99
2022-11-07T06:10:43.511Z,18.97
2022-11-07T06:13:12.318Z,18.97
2022-11-07T06:15:42.392Z,18.97
2022-11-07T06:18:13.452Z,18.97
2022-11-07T06:20:41.015Z,18.97
2022-11-07T06:23:09.961Z,18.97
2022-11-07T06:25:37.615Z,18.95
2022-11-07T06:28:06.051Z,18.95
2022-11-07T06:30:33.674Z,18.96
2022-11-07T06:33:01.769Z,18.95
2022-11-07T06:35:29.506Z,18.95
2022-11-07T06:37:57.085Z,18.95
2022-11-07T06:40:26.027Z,18.95
2022-11-07T06:42:53.564Z,18.94
2022-11-07T06:45:22.090Z,18.94
2022-11-07T06:47:49.719Z,18.94
2022-11-07T06:50:17.499Z,18.93
2022-11-07T06:52:45.216Z,18.93
2022-11-07T06:55:12.778Z,18.93
2022-11-07T06:57:41.736Z,18.93
2022-11-07T07:00:10.792Z,18.92
2022-11-07T07:02:57.500Z,18.91
2022-11-07T07:05:25.976Z,18.92
2022-11-07T07:07:54.881Z,18.90
2022-11-07T07:10:22.488Z,18.90
2022-11-07T07:12:51.379Z,18.90
2022-11-07T07:15:19.089Z,18.90
2022-11-07T07:17:46.656Z,18.89
2022-11-07T07:20:14.311Z,18.90
2022-11-07T07:22:41.887Z,18.90
2022-11-07T07:25:11.470Z,18.88
2022-11-07T07:27:39.067Z,18.87
2022-11-07T07:30:09.632Z,18.87
2022-11-07T07:32:37.304Z,18.85
2022-11-07T07:35:05.556Z,18.85
2022-11-07T07:37:33.146Z,18.87
2022-11-07T07:40:00.713Z,18.86
2022-11-07T07:42:28.340Z,18.86
2022-11-07T07:44:55.916Z,18.85
2022-11-07T07:47:24.952Z,18.86
2022-11-07T07:49:52.503Z,18.87
2022-11-07T07:52:20.085Z,18.86
2022-11-07T07:54:47.744Z,18.86
2022-11-07T07:57:15.346Z,18.87
2022-11-07T07:59:42.948Z,18.87
2022-11-07T08:02:11.501Z,18.88
2022-11-07T08:04:41.447Z,18.88
2022-11-07T08:07:09.097Z,18.89
2022-11-07T08:09:36.925Z,18.89
2022-11-07T08:12:04.673Z,18.85
2022-11-07T08:14:32.778Z,18.64
2022-11-07T08:17:00.416Z,18.41
2022-11-07T08:19:28.024Z,18.26
2022-11-07T08:21:57.017Z,18.34
2022-11-07T08:24:24.637Z,18.47
2022-11-07T08:26:52.201Z,18.56
2022-11-07T08:29:19.739Z,18.64
2022-11-07T08:31:50.482Z,18.66
2022-11-07T08:34:18.567Z,18.68
2022-11-07T08:36:46.152Z,18.69
2022-11-07T08:39:15.120Z,18.69
2022-11-07T08:41:42.704Z,18.70
2022-11-07T08:44:10.396Z,18.72
2022-11-07T08:46:37.931Z,18.74
2022-11-07T08:49:05.613Z,18.75
2022-11-07T08:51:34.011Z,18.76
2022-11-07T08:54:01.585Z,18.77
2022-11-07T08:56:30.684Z,18.79
2022-11-07T08:58:58.293Z,18.79
2022-11-07T09:01:26.049Z,18.81
2022-11-07T09:03:58.001Z,18.83
2022-11-07T09:06:26.221Z,18.85
2022-11-07T09:08:53.806Z,18.86
2022-11-07T09:11:21.977Z,18.89
2022-11-07T09:13:50.900Z,18.90
2022-11-07T09:16:18.500Z,18.93
2022-11-07T09:18:46.285Z,18.94
2022-11-07T09:21:17.800Z,18.96
2022-11-07T09:23:49.567Z,18.97
2022-11-07T09:26:17.342Z,18.98
2022-11-07T09:28:51.663Z,19.00
2022-11-07T09:31:23.206Z,19.01
2022-11-07T09:33:50.791Z,19.00
2022-11-07T09:36:18.405Z,19.02
2022-11-07T09:38:46.017Z,19.04
2022-11-07T09:41:18.291Z,19.01
2022-11-07T09:43:56.422Z,19.01
2022-11-07T09:46:30.482Z,19.01
2022-11-07T09:49:00.516Z,19.02
2022-11-07T09:51:29.867Z,19.00
2022-11-07T09:53:59.162Z,19.00
2022-11-07T09:56:33.239Z,19.01
2022-11-07T09:59:02.365Z,19.00
2022-11-07T10:01:32.457Z,19.01
2022-11-07T10:06:49.270Z,19.04
2022-11-07T10:09:18.794Z,19.04
2022-11-07T10:11:49.564Z,19.04
2022-11-07T10:14:20.917Z,19.04
2022-11-07T10:17:00.319Z,19.06
2022-11-07T10:19:33.811Z,19.06
2022-11-07T10:22:08.592Z,19.07
2022-11-07T10:24:42.771Z,19.07
2022-11-07T10:27:11.290Z,19.09
2022-11-07T10:29:44.790Z,19.09
2022-11-07T10:32:18.216Z,19.11
2022-11-07T10:34:53.154Z,19.13
2022-11-07T10:37:22.043Z,19.13
2022-11-07T10:39:49.679Z,19.15
2022-11-07T10:42:19.128Z,19.12
2022-11-07T10:44:46.732Z,19.13
2022-11-07T10:47:19.061Z,19.14
2022-11-07T10:49:57.417Z,19.13
2022-11-07T10:52:25.062Z,19.12
2022-11-07T10:54:52.636Z,19.11
2022-11-07T10:57:20.909Z,19.11
2022-11-07T10:59:56.327Z,19.10
2022-11-07T11:02:26.528Z,19.08
2022-11-07T11:04:55.658Z,19.08
2022-11-07T11:07:28.541Z,19.08
2022-11-07T11:09:57.986Z,19.08
2022-11-07T11:12:27.000Z,19.08
2022-11-07T11:15:05.119Z,19.08
2022-11-07T11:17:34.854Z,19.09
2022-11-07T11:20:02.449Z,19.10
2022-11-07T11:22:30.244Z,19.10
2022-11-07T11:25:03.299Z,19.13
2022-11-07T11:27:31.579Z,19.09
2022-11-07T11:30:01.409Z,19.07
2022-11-07T11:32:32.522Z,19.05
2022-11-07T11:35:06.267Z,19.06
2022-11-07T11:37:34.814Z,19.06
2022-11-07T11:40:12.795Z,19.07
2022-11-07T11:42:47.044Z,19.07
2022-11-07T11:45:17.247Z,19.08
2022-11-07T11:47:48.439Z,19.08
2022-11-07T11:50:18.628Z,19.09
2022-11-07T11:52:46.367Z,19.08
2022-11-07T11:55:14.614Z,19.08
2022-11-07T11:57:46.904Z,19.08
2022-11-07T12:00:15.277Z,19.10
2022-11-07T12:03:07.944Z,19.09
2022-11-07T12:06:19.546Z,19.11
2022-11-07T12:08:57.622Z,19.09
2022-11-07T12:11:28.071Z,19.11
2022-11-07T12:13:59.418Z,19.10
2022-11-07T12:16:31.413Z,19.10
2022-11-07T12:19:02.266Z,19.10
2022-11-07T12:21:33.867Z,19.11
2022-11-07T12:24:07.929Z,19.11
2022-11-07T12:26:37.100Z,19.10
2022-11-07T12:29:09.617Z,19.10
2022-11-07T12:31:46.489Z,19.11
2022-11-07T12:34:21.603Z,19.12
2022-11-07T12:36:57.924Z,19.13
2022-11-07T12:39:52.608Z,19.12
2022-11-07T12:42:26.684Z,19.11
2022-11-07T12:45:00.516Z,19.10
2022-11-07T12:47:38.488Z,19.08
2022-11-07T12:50:14.945Z,19.09
2022-11-07T12:52:50.373Z,19.08
2022-11-07T12:55:20.843Z,19.06
2022-11-07T12:57:48.732Z,19.07
2022-11-07T13:00:21.305Z,19.07
2022-11-07T13:03:12.484Z,19.06
2022-11-07T13:05:50.067Z,19.06
2022-11-07T13:08:21.900Z,19.03
2022-11-07T13:10:53.031Z,19.02
2022-11-07T13:13:22.445Z,19.00
2022-11-07T13:16:13.970Z,19.01
2022-11-07T13:18:37.680Z,19.02
2022-11-07T13:21:06.467Z,19.01
2022-11-07T13:23:35.465Z,19.02
2022-11-07T13:26:25.913Z,19.01
2022-11-07T13:28:57.500Z,19.01
2022-11-07T13:31:33.199Z,19.03
2022-11-07T13:34:12.147Z,19.02
2022-11-07T13:36:39.777Z,19.03
2022-11-07T13:39:09.079Z,19.04
2022-11-07T13:41:36.712Z,19.02
2022-11-07T13:44:05.564Z,19.05
2022-11-07T13:46:35.640Z,19.04
2022-11-07T13:49:05.042Z,19.03
2022-11-07T13:51:33.327Z,19.06
2022-11-07T13:54:06.322Z,19.06
2022-11-07T13:56:36.441Z,19.07
2022-11-07T13:59:04.645Z,19.08
2022-11-07T14:01:41.558Z,19.07
2022-11-07T14:04:14.893Z,19.11
2022-11-07T14:06:42.697Z,19.10
2022-11-07T14:09:10.321Z,19.09
2022-11-07T14:11:39.301Z,19.10
2022-11-07T14:14:07.477Z,19.12
2022-11-07T14:16:35.075Z,19.12
2022-11-07T14:19:06.402Z,19.13
2022-11-07T14:21:34.827Z,19.15
2022-11-07T14:24:02.461Z,19.15
2022-11-07T14:26:31.037Z,19.14
2022-11-07T14:29:00.831Z,19.12
2022-11-07T14:31:29.392Z,19.12
2022-11-07T14:33:58.502Z,19.11
2022-11-07T14:36:26.417Z,19.11
2022-11-07T14:38:54.882Z,19.11
2022-11-07T14:41:22.757Z,19.11
2022-11-07T14:43:50.457Z,19.10
2022-11-07T14:46:21.234Z,19.10
2022-11-07T14:48:49.560Z,19.11
2022-11-07T14:51:19.978Z,19.11
2022-11-07T14:53:52.256Z,19.10
2022-11-07T14:56:20.764Z,19.10
2022-11-07T14:58:48.389Z,19.09
2022-11-07T15:01:26.641Z,19.09
2022-11-07T15:03:56.555Z,19.08
2022-11-07T15:06:25.902Z,19.07
2022-11-07T15:08:57.549Z,19.07
2022-11-07T15:11:27.799Z,19.07
2022-11-07T15:14:22.926Z,19.04
2022-11-07T15:16:52.040Z,19.03
2022-11-07T15:19:20.643Z,19.01
2022-11-07T15:21:53.095Z,19.02
2022-11-07T15:24:33.885Z,19.01
2022-11-07T15:27:02.125Z,18.98
2022-11-07T15:29:32.109Z,18.99
2022-11-07T15:32:06.500Z,18.98
2022-11-07T15:34:58.587Z,18.97
2022-11-07T15:37:22.895Z,18.97
2022-11-07T15:39:50.501Z,18.96
2022-11-07T15:42:18.144Z,18.95
2022-11-07T15:44:45.701Z,18.96
2022-11-07T15:47:17.579Z,18.95
2022-11-07T15:49:45.288Z,18.95
2022-11-07T15:52:12.906Z,18.94
2022-11-07T15:54:40.516Z,18.94
2022-11-07T15:57:08.133Z,18.94
2022-11-07T15:59:37.087Z,18.94
2022-11-07T16:02:05.250Z,18.94
2022-11-07T16:04:39.331Z,18.94
2022-11-07T16:07:09.353Z,18.96
2022-11-07T16:09:36.894Z,18.95
2022-11-07T16:12:04.855Z,18.95
2022-11-07T16:14:47.816Z,18.94
2022-11-07T16:17:16.323Z,18.93
2022-11-07T16:19:45.323Z,18.93
2022-11-07T16:22:13.108Z,18.91
2022-11-07T16:24:40.693Z,18.91
2022-11-07T16:27:08.279Z,18.90
2022-11-07T16:29:35.897Z,18.89
2022-11-07T16:32:03.530Z,18.88
2022-11-07T16:34:31.536Z,18.89
2022-11-07T16:37:00.567Z,18.87
2022-11-07T16:39:28.341Z,18.87
2022-11-07T16:41:55.922Z,18.85
2022-11-07T16:44:26.292Z,18.84
2022-11-07T16:46:55.267Z,18.84
2022-11-07T16:49:25.256Z,18.84
2022-11-07T16:51:52.787Z,18.83
2022-11-07T16:54:21.760Z,18.83
2022-11-07T16:56:51.255Z,18.84
2022-11-07T16:59:19.407Z,18.84
2022-11-07T17:01:47.055Z,18.84
2022-11-07T17:04:14.709Z,18.85
2022-11-07T17:06:46.208Z,18.84
2022-11-07T17:09:14.289Z,18.84
2022-11-07T17:11:43.435Z,18.84
2022-11-07T17:14:11.031Z,18.83
2022-11-07T17:16:38.791Z,18.82
2022-11-07T17:19:06.481Z,18.82
2022-11-07T17:21:36.192Z,18.82
2022-11-07T17:24:03.838Z,18.81
2022-11-07T17:26:34.383Z,18.82
2022-11-07T17:29:03.453Z,18.79
2022-11-07T17:31:31.056Z,18.81
2022-11-07T17:33:58.720Z,18.80
2022-11-07T17:36:36.378Z,18.81
2022-11-07T17:39:06.109Z,18.83
2022-11-07T17:41:33.813Z,18.84
2022-11-07T17:44:03.739Z,18.86
2022-11-07T17:46:32.411Z,18.91
2022-11-07T17:49:00.716Z,18.99
2022-11-07T17:51:28.382Z,19.06
2022-11-07T17:53:56.198Z,19.14
2022-11-07T17:56:24.973Z,19.20
2022-11-07T17:58:54.513Z,19.28
2022-11-07T18:01:24.874Z,19.35
2022-11-07T18:03:53.079Z,19.41
2022-11-07T18:06:23.231Z,19.48
2022-11-07T18:08:52.510Z,19.53
2022-11-07T18:11:20.731Z,19.58
2022-11-07T18:13:50.488Z,19.63
2022-11-07T18:16:19.536Z,19.67
2022-11-07T18:18:48.476Z,19.71
2022-11-07T18:21:16.467Z,19.75
2022-11-07T18:23:44.663Z,19.78
2022-11-07T18:26:13.257Z,19.82
2022-11-07T18:28:41.120Z,19.85
2022-11-07T18:31:10.226Z,19.91
2022-11-07T18:33:38.155Z,19.93
2022-11-07T18:36:08.351Z,19.93
2022-11-07T18:38:36.013Z,19.98
2022-11-07T18:41:04.634Z,19.98
2022-11-07T18:43:32.303Z,20.00
2022-11-07T18:46:00.095Z,20.00
2022-11-07T18:48:30.072Z,20.02
2022-11-07T18:50:57.732Z,20.04
2022-11-07T18:53:26.769Z,20.06
2022-11-07T18:55:57.880Z,20.07
2022-11-07T18:58:25.510Z,20.08
2022-11-07T19:00:54.911Z,20.12
2022-11-07T19:03:22.686Z,20.15
2022-11-07T19:05:51.503Z,20.16
2022-11-07T19:08:19.483Z,20.19
2022-11-07T19:10:48.621Z,20.20
2022-11-07T19:13:16.306Z,20.21
2022-11-07T19:15:43.918Z,20.22
2022-11-07T19:18:11.603Z,20.22
2022-11-07T19:20:39.987Z,20.25
2022-11-07T19:23:07.669Z,20.22
2022-11-07T19:25:35.311Z,20.21
2022-11-07T19:28:04.483Z,20.21
2022-11-07T19:30:33.303Z,20.24
2022-11-07T19:33:02.097Z,20.26
2022-11-07T19:35:29.760Z,20.27
2022-11-07T19:37:57.366Z,20.30
2022-11-07T19:40:24.992Z,20.29
2022-11-07T19:42:52.752Z,20.32
2022-11-07T19:45:22.048Z,20.30
2022-11-07T19:47:49.783Z,20.31
2022-11-07T19:50:17.437Z,20.34
2022-11-07T19:52:45.016Z,20.36
2022-11-07T19:55:12.598Z,20.38
2022-11-07T19:57:40.170Z,20.38
2022-11-07T20:00:09.953Z,20.41
2022-11-07T20:02:44.441Z,20.43
2022-11-07T20:05:12.766Z,20.41
2022-11-07T20:07:40.408Z,20.39
2022-11-07T20:10:09.005Z,20.38
2022-11-07T20:12:36.608Z,20.38
2022-11-07T20:15:04.454Z,20.42
2022-11-07T20:17:32.205Z,20.39
2022-11-07T20:20:05.185Z,20.34
2022-11-07T20:22:34.955Z,20.27
2022-11-07T20:25:02.570Z,20.20
2022-11-07T20:27:30.200Z,20.15
2022-11-07T20:29:59.273Z,20.08
2022-11-07T20:32:26.919Z,20.04
2022-11-07T20:34:54.629Z,19.99
2022-11-07T20:37:23.572Z,19.95
2022-11-07T20:39:51.599Z,19.91
2022-11-07T20:42:19.208Z,19.85
2022-11-07T20:44:47.959Z,19.81
2022-11-07T20:47:15.625Z,19.78
2022-11-07T20:49:43.462Z,19.74
2022-11-07T20:52:11.059Z,19.70
2022-11-07T20:54:40.060Z,19.67
2022-11-07T20:57:07.671Z,19.62
2022-11-07T20:59:35.384Z,19.61
2022-11-07T21:02:04.011Z,19.57
2022-11-07T21:04:50.058Z,19.54
2022-11-07T21:07:20.064Z,19.53
2022-11-07T21:09:49.221Z,19.50
2022-11-07T21:12:16.846Z,19.46
2022-11-07T21:14:44.445Z,19.45
2022-11-07T21:17:12.047Z,19.43
2022-11-07T21:19:39.639Z,19.40
2022-11-07T21:22:07.236Z,19.38
2022-11-07T21:24:34.829Z,19.35
2022-11-07T21:27:04.686Z,19.34
2022-11-07T21:29:34.296Z,19.31
2022-11-07T21:32:02.466Z,19.31
2022-11-07T21:34:30.126Z,19.30
2022-11-07T21:36:57.758Z,19.28
2022-11-07T21:39:25.446Z,19.26
2022-11-07T21:41:53.194Z,19.26
2022-11-07T21:44:22.617Z,19.27
2022-11-07T21:46:50.211Z,19.25
2022-11-07T21:49:17.838Z,19.25
2022-11-07T21:51:45.468Z,19.24
2022-11-07T21:54:13.096Z,19.25
2022-11-07T21:56:41.013Z,19.25
2022-11-07T21:59:10.118Z,19.26
2022-11-07T22:01:40.273Z,19.25
2022-11-07T22:04:10.529Z,19.26
2022-11-07T22:06:39.646Z,19.25
2022-11-07T22:09:07.701Z,19.26
2022-11-07T22:11:35.426Z,19.26
2022-11-07T22:14:03.233Z,19.27
2022-11-07T22:16:31.502Z,19.26
2022-11-07T22:19:00.677Z,19.27
2022-11-07T22:21:28.234Z,19.27
2022-11-07T22:23:56.491Z,19.26
2022-11-07T22:26:25.134Z,19.27
2022-11-07T22:28:52.783Z,19.27
2022-11-07T22:31:22.406Z,19.27
2022-11-07T22:33:50.284Z,19.27
2022-11-07T22:36:19.300Z,19.28
2022-11-07T22:38:47.038Z,19.26
2022-11-07T22:41:15.561Z,19.27
2022-11-07T22:43:43.416Z,19.27
2022-11-07T22:46:12.105Z,19.27
2022-11-07T22:48:39.908Z,19.26
2022-11-07T22:51:08.651Z,19.26
2022-11-07T22:53:38.592Z,19.26
2022-11-07T22:56:09.981Z,19.25
2022-11-07T22:58:37.582Z,19.24
2022-11-07T23:01:05.415Z,19.24
2022-11-07T23:03:33.065Z,19.24
2022-11-07T23:06:03.328Z,19.24
2022-11-07T23:08:30.961Z,19.23
2022-11-07T23:11:40.216Z,19.23
2022-11-07T23:13:48.412Z,19.22
2022-11-07T23:16:20.634Z,19.21
2022-11-07T23:18:48.235Z,19.21
2022-11-07T23:21:15.903Z,19.20
2022-11-07T23:23:43.643Z,19.21
2022-11-07T23:26:13.713Z,19.20
2022-11-07T23:28:41.433Z,19.18
2022-11-07T23:31:09.196Z,19.18
2022-11-07T23:33:37.143Z,19.18
2022-11-07T23:36:05.190Z,19.18
2022-11-07T23:38:32.779Z,19.16
2022-11-07T23:41:02.175Z,19.16
2022-11-07T23:43:31.225Z,19.17
2022-11-07T23:46:16.660Z,19.16
2022-11-07T23:49:02.042Z,19.15
2022-11-07T23:51:29.811Z,19.14
2022-11-07T23:54:15.032Z,19.14
2022-11-07T23:56:42.921Z,19.11
2022-11-07T23:59:29.575Z,19.11
